Flight Track Log - Related Links

Times and Time Zones

All times are in EDT time to prevent confusion due to time zone crossing. See the EJA365 flight status page for this flight to view local times or setup timezone preferences in your user account.

Time Position Orientation Groundspeed Altitude Reporting Facility
EDT Latitude Longitude Course Direction KTS MPH feet Rate Location/Type
Sat 07:21:36 AM 38.2922 -81.6050 148° Southeast 249 287 5,600  Level Indianapolis Center
Sat 07:22:37 AM 38.2236 -81.5514 148° Southeast 285 328 8,700 2,164 Climbing Indianapolis Center
Sat 07:23:38 AM 38.1406 -81.4894 150° Southeast 341 392 10,000 1,785 Climbing Indianapolis Center
Sat 07:24:38 AM 38.0478 -81.4583 165° South 355 409 12,300 2,628 Climbing Indianapolis Center
Sat 07:25:39 AM 38.0083 -81.5464 240° Southwest 304 350 15,300 2,951 Climbing Indianapolis Center
Sat 07:26:40 AM 37.9789 -81.6450 249° West 298 343 18,300 2,951 Climbing Indianapolis Center
Sat 07:27:41 AM 37.9492 -81.7494 250° West 311 358 21,300 2,951 Climbing Indianapolis Center
Sat 07:28:42 AM 37.9206 -81.8542 251° West 313 360 24,300 2,852 Climbing Indianapolis Center
Sat 07:29:43 AM 37.8922 -81.9542 250° West 304 350 27,100 2,164 Climbing Indianapolis Center
Sat 07:30:44 AM 37.8356 -82.0461 232° Southwest 319 367 28,700 1,475 Climbing Indianapolis Center
Sat 07:31:45 AM 37.7769 -82.1372 231° Southwest 331 381 30,100 1,475 Climbing Indianapolis Center
Sat 07:32:46 AM 37.6839 -82.1675 194° South 370 426 31,700 1,426 Climbing Indianapolis Center
Sat 07:33:47 AM 37.5769 -82.1644 179° South 381 438 33,000 639 Climbing Indianapolis Center
Sat 07:34:48 AM 37.4686 -82.1714 183° South 386 444 33,000  Level Indianapolis Center
Sat 07:35:49 AM 37.3419 -82.1758 182° South 388 447 33,000  Level Indianapolis Center
Sat 07:36:27 AM 37.2786 -82.1817 184° South 392 451 33,000  Level Atlanta Center
Sat 07:37:27 AM 37.1828 -82.1867 182° South 372 428 33,000  Level Atlanta Center
Sat 07:38:27 AM 37.0767 -82.1892 181° South 372 428 33,000  Level Atlanta Center
Sat 07:39:27 AM 36.9703 -82.1942 182° South 385 443 33,000 -450 Level Atlanta Center
Sat 07:40:27 AM 36.8578 -82.2019 183° South 392 451 32,100 -950 Descending Atlanta Center
Sat 07:41:27 AM 36.7328 -82.2075 182° South 404 465 31,100 -1,000 Descending Atlanta Center
Sat 07:42:27 AM 36.6183 -82.2128 182° South 404 465 30,100 -1,050 Descending Atlanta Center
Sat 07:43:27 AM 36.5078 -82.2178 182° South 404 465 29,000 -1,300 Descending Atlanta Center
Sat 07:44:27 AM 36.3972 -82.2228 182° South 398 458 27,500 -1,500 Descending Atlanta Center
Sat 07:45:27 AM 36.2828 -82.2281 182° South 408 470 26,000 -1,500 Descending Atlanta Center
Sat 07:46:27 AM 36.1722 -82.2358 183° South 408 470 24,500 -1,500 Descending Atlanta Center
Sat 07:47:27 AM 36.0617 -82.2381 181° South 398 458 23,000 -1,500 Descending Atlanta Center
Sat 07:48:27 AM 35.9514 -82.2458 183° South 398 458 21,500 -1,450 Descending Atlanta Center
Sat 07:49:27 AM 35.8450 -82.2506 182° South 398 458 20,100 -750 Descending Atlanta Center
Sat 07:50:27 AM 35.7408 -82.2556 182° South 390 449 20,000 -50 Descending Atlanta Center
Sat 07:51:27 AM 35.6386 -82.2603 182° South 371 427 20,000  Level Atlanta Center
Sat 07:52:27 AM 35.5364 -82.2675 183° South 371 427 20,000  Level Atlanta Center
Sat 07:53:27 AM 35.4342 -82.2697 181° South 366 421 20,000  Level Atlanta Center
Sat 07:54:27 AM 35.3300 -82.2644 178° South 366 421 20,000  Level Atlanta Center
Sat 07:55:27 AM 35.2256 -82.2539 175° South 371 427 20,000  Level Atlanta Center
Sat 07:56:27 AM 35.1208 -82.2433 175° South 371 427 20,000  Level Atlanta Center
Sat 07:57:27 AM 35.0186 -82.2331 175° South 371 427 20,000  Level Atlanta Center
Sat 07:58:27 AM 34.9267 -82.2250 176° South 371 427 20,000  Level Atlanta Center
Sat 07:59:27 AM 34.8117 -82.2122 175° South 371 427 20,000 -100 Level Atlanta Center
Sat 08:00:27 AM 34.7092 -82.2019 175° South 371 427 19,800 -1,750 Descending Atlanta Center
Sat 08:01:27 AM 34.6111 -82.1914 175° South 365 420 16,500 -3,050 Descending Atlanta Center
Sat 08:02:27 AM 34.5147 -82.1808 175° South 365 420 13,700 -1,750 Descending Atlanta Center
Sat 08:03:27 AM 34.4292 -82.1753 177° South 348 400 13,000 -350 Descending Atlanta Center
Sat 08:04:27 AM 34.3475 -82.1644 174° South 317 365 13,000  Level Atlanta Center
Sat 08:05:27 AM 34.2661 -82.1561 175° South 304 350 13,000  Level Atlanta Center
Sat 08:06:27 AM 34.1825 -82.1556 180° South 304 350 13,000  Level Atlanta Center
Sat 08:07:27 AM 34.0908 -82.1575 181° South 310 357 13,000 -50 Level Atlanta Center
Sat 08:08:27 AM 34.0011 -82.1594 181° South 320 368 12,900 -550 Descending Atlanta Center
Sat 08:09:27 AM 33.9050 -82.1592 180° South 333 383 11,900 -1,000 Descending Atlanta Center
Sat 08:10:27 AM 33.8069 -82.1614 181° South 345 397 10,900 -950 Descending Atlanta Center
Sat 08:11:27 AM 33.7089 -82.1633 181° South 350 403 10,000 -450 Descending Atlanta Center
Sat 08:12:27 AM 33.6125 -82.1356 167° South 350 403 10,000 -650 Level Atlanta Center
Sat 08:13:27 AM 33.5222 -82.1078 166° South 350 403 8,700 -1,700 Descending Atlanta Center
Sat 08:14:27 AM 33.4428 -82.0844 166° South 328 377 6,600 -2,100 Descending Atlanta Center
Sat 08:16:00 AM 33.3699 -81.9645 148° Southeast  Level Estimated
Sat 08:23:00 AM 33.3699 -81.9645 148° Southeast  Level Estimated
Sat 08:24:00 AM 33.3699 -81.9645 148° Southeast  Level Estimated
Sat 08:25:00 AM 33.3699 -81.9645 148° Southeast  Level Estimated
Sat 08:26:00 AM 33.3699 -81.9645 148° Southeast  Level Estimated

Login

Don't have an account? Register now (free) for customized features, flight alerts, and more!